sensor_id;sensor_type;location;lat;lon;timestamp;temperature;humidity
3466;DHT22;1747;48.884;9.160;2023-06-22T00:00:52;22.80;99.90
3466;DHT22;1747;48.884;9.160;2023-06-22T00:03:21;22.70;99.90
3466;DHT22;1747;48.884;9.160;2023-06-22T00:05:48;22.60;99.90
3466;DHT22;1747;48.884;9.160;2023-06-22T00:08:16;22.50;99.90
3466;DHT22;1747;48.884;9.160;2023-06-22T00:10:44;22.50;99.90
3466;DHT22;1747;48.884;9.160;2023-06-22T00:13:11;22.40;99.90
3466;DHT22;1747;48.884;9.160;2023-06-22T00:15:40;22.40;99.90
3466;DHT22;1747;48.884;9.160;2023-06-22T00:18:09;22.40;99.90
3466;DHT22;1747;48.884;9.160;2023-06-22T00:20:36;22.40;99.90
3466;DHT22;1747;48.884;9.160;2023-06-22T00:23:04;22.30;99.90
3466;DHT22;1747;48.884;9.160;2023-06-22T00:25:33;22.30;99.90
3466;DHT22;1747;48.884;9.160;2023-06-22T00:28:00;22.20;99.90
3466;DHT22;1747;48.884;9.160;2023-06-22T00:30:27;22.30;99.90
3466;DHT22;1747;48.884;9.160;2023-06-22T00:32:55;22.30;99.90
3466;DHT22;1747;48.884;9.160;2023-06-22T00:35:22;22.20;99.90
3466;DHT22;1747;48.884;9.160;2023-06-22T00:37:54;22.20;99.90
3466;DHT22;1747;48.884;9.160;2023-06-22T00:40:26;22.10;99.90
3466;DHT22;1747;48.884;9.160;2023-06-22T00:42:53;22.10;99.90
3466;DHT22;1747;48.884;9.160;2023-06-22T00:45:20;22.20;99.90
3466;DHT22;1747;48.884;9.160;2023-06-22T00:47:48;22.20;99.90
3466;DHT22;1747;48.884;9.160;2023-06-22T00:50:19;22.10;99.90
3466;DHT22;1747;48.884;9.160;2023-06-22T00:52:48;22.10;99.90
3466;DHT22;1747;48.884;9.160;2023-06-22T00:55:18;22.10;99.90
3466;DHT22;1747;48.884;9.160;2023-06-22T00:57:45;22.10;99.90
3466;DHT22;1747;48.884;9.160;2023-06-22T01:00:13;22.10;99.90
3466;DHT22;1747;48.884;9.160;2023-06-22T01:02:45;22.10;99.90
3466;DHT22;1747;48.884;9.160;2023-06-22T01:05:13;22.10;99.90
3466;DHT22;1747;48.884;9.160;2023-06-22T01:07:45;22.10;99.90
3466;DHT22;1747;48.884;9.160;2023-06-22T01:10:19;22.10;99.90
3466;DHT22;1747;48.884;9.160;2023-06-22T01:12:50;22.10;99.90
3466;DHT22;1747;48.884;9.160;2023-06-22T01:15:21;22.10;99.90
3466;DHT22;1747;48.884;9.160;2023-06-22T01:17:50;22.10;99.90
3466;DHT22;1747;48.884;9.160;2023-06-22T01:20:20;22.00;99.90
3466;DHT22;1747;48.884;9.160;2023-06-22T01:23:01;22.00;99.90
3466;DHT22;1747;48.884;9.160;2023-06-22T01:25:31;22.00;99.90
3466;DHT22;1747;48.884;9.160;2023-06-22T01:28:05;22.00;99.90
3466;DHT22;1747;48.884;9.160;2023-06-22T01:30:42;22.00;99.90
3466;DHT22;1747;48.884;9.160;2023-06-22T01:33:10;22.00;99.90
3466;DHT22;1747;48.884;9.160;2023-06-22T01:35:39;22.00;99.90
3466;DHT22;1747;48.884;9.160;2023-06-22T01:38:07;22.00;99.90
3466;DHT22;1747;48.884;9.160;2023-06-22T01:40:35;21.90;99.90
3466;DHT22;1747;48.884;9.160;2023-06-22T01:43:03;21.90;99.90
3466;DHT22;1747;48.884;9.160;2023-06-22T01:45:30;21.90;99.90
3466;DHT22;1747;48.884;9.160;2023-06-22T01:47:59;22.00;99.90
3466;DHT22;1747;48.884;9.160;2023-06-22T01:50:26;21.90;99.90
3466;DHT22;1747;48.884;9.160;2023-06-22T01:52:53;21.90;99.90
3466;DHT22;1747;48.884;9.160;2023-06-22T01:55:20;21.90;99.90
3466;DHT22;1747;48.884;9.160;2023-06-22T01:57:47;21.80;99.90
3466;DHT22;1747;48.884;9.160;2023-06-22T02:00:17;21.80;99.90
3466;DHT22;1747;48.884;9.160;2023-06-22T02:02:51;21.80;99.90
3466;DHT22;1747;48.884;9.160;2023-06-22T02:05:21;21.80;99.90
3466;DHT22;1747;48.884;9.160;2023-06-22T02:07:54;21.80;99.90
3466;DHT22;1747;48.884;9.160;2023-06-22T02:10:24;21.80;99.90
3466;DHT22;1747;48.884;9.160;2023-06-22T02:12:53;21.80;99.90
3466;DHT22;1747;48.884;9.160;2023-06-22T02:15:20;21.80;99.90
3466;DHT22;1747;48.884;9.160;2023-06-22T02:17:47;21.70;99.90
3466;DHT22;1747;48.884;9.160;2023-06-22T02:20:15;21.70;99.90
3466;DHT22;1747;48.884;9.160;2023-06-22T02:22:43;21.70;99.90
3466;DHT22;1747;48.884;9.160;2023-06-22T02:25:10;21.80;99.90
3466;DHT22;1747;48.884;9.160;2023-06-22T02:27:37;21.80;99.90
3466;DHT22;1747;48.884;9.160;2023-06-22T02:30:07;21.80;99.90
3466;DHT22;1747;48.884;9.160;2023-06-22T02:32:34;21.80;99.90
3466;DHT22;1747;48.884;9.160;2023-06-22T02:35:00;21.80;99.90
3466;DHT22;1747;48.884;9.160;2023-06-22T02:37:29;21.80;99.90
3466;DHT22;1747;48.884;9.160;2023-06-22T02:39:57;21.80;99.90
3466;DHT22;1747;48.884;9.160;2023-06-22T02:42:24;21.80;99.90
3466;DHT22;1747;48.884;9.160;2023-06-22T02:44:51;21.70;99.90
3466;DHT22;1747;48.884;9.160;2023-06-22T02:47:18;21.80;99.90
3466;DHT22;1747;48.884;9.160;2023-06-22T02:49:45;21.70;99.90
3466;DHT22;1747;48.884;9.160;2023-06-22T02:52:12;21.70;99.90
3466;DHT22;1747;48.884;9.160;2023-06-22T02:54:39;21.70;99.90
3466;DHT22;1747;48.884;9.160;2023-06-22T02:57:08;21.70;99.90
3466;DHT22;1747;48.884;9.160;2023-06-22T02:59:38;21.70;99.90
3466;DHT22;1747;48.884;9.160;2023-06-22T03:02:06;21.60;99.90
3466;DHT22;1747;48.884;9.160;2023-06-22T03:04:33;21.60;99.90
3466;DHT22;1747;48.884;9.160;2023-06-22T03:07:00;21.60;99.90
3466;DHT22;1747;48.884;9.160;2023-06-22T03:09:27;21.60;99.90
3466;DHT22;1747;48.884;9.160;2023-06-22T03:11:54;21.60;99.90
3466;DHT22;1747;48.884;9.160;2023-06-22T03:14:22;21.50;99.90
3466;DHT22;1747;48.884;9.160;2023-06-22T03:16:49;21.50;99.90
3466;DHT22;1747;48.884;9.160;2023-06-22T03:19:16;21.50;99.90
3466;DHT22;1747;48.884;9.160;2023-06-22T03:21:43;21.50;99.90
3466;DHT22;1747;48.884;9.160;2023-06-22T03:24:10;21.40;99.90
3466;DHT22;1747;48.884;9.160;2023-06-22T03:26:36;21.40;99.90
3466;DHT22;1747;48.884;9.160;2023-06-22T03:29:03;21.30;99.90
3466;DHT22;1747;48.884;9.160;2023-06-22T03:31:31;21.30;99.90
3466;DHT22;1747;48.884;9.160;2023-06-22T03:33:58;21.20;99.90
3466;DHT22;1747;48.884;9.160;2023-06-22T03:36:25;21.10;99.90
3466;DHT22;1747;48.884;9.160;2023-06-22T03:38:52;21.10;99.90
3466;DHT22;1747;48.884;9.160;2023-06-22T03:41:18;21.10;99.90
3466;DHT22;1747;48.884;9.160;2023-06-22T03:43:45;21.10;99.90
3466;DHT22;1747;48.884;9.160;2023-06-22T03:46:12;21.00;99.90
3466;DHT22;1747;48.884;9.160;2023-06-22T03:48:40;21.00;99.90
3466;DHT22;1747;48.884;9.160;2023-06-22T03:51:07;21.00;99.90
3466;DHT22;1747;48.884;9.160;2023-06-22T03:53:34;21.00;99.90
3466;DHT22;1747;48.884;9.160;2023-06-22T03:56:01;21.00;99.90
3466;DHT22;1747;48.884;9.160;2023-06-22T03:58:27;21.00;99.90
3466;DHT22;1747;48.884;9.160;2023-06-22T04:00:58;21.00;99.90
3466;DHT22;1747;48.884;9.160;2023-06-22T04:03:26;21.10;99.90
3466;DHT22;1747;48.884;9.160;2023-06-22T04:05:54;21.10;99.90
3466;DHT22;1747;48.884;9.160;2023-06-22T04:08:21;21.10;99.90
3466;DHT22;1747;48.884;9.160;2023-06-22T04:10:47;21.20;99.90
3466;DHT22;1747;48.884;9.160;2023-06-22T04:13:15;21.20;99.90
3466;DHT22;1747;48.884;9.160;2023-06-22T04:15:41;21.20;99.90
3466;DHT22;1747;48.884;9.160;2023-06-22T04:18:08;21.30;99.90
3466;DHT22;1747;48.884;9.160;2023-06-22T04:20:35;21.40;99.90
3466;DHT22;1747;48.884;9.160;2023-06-22T04:23:03;21.40;99.90
3466;DHT22;1747;48.884;9.160;2023-06-22T04:25:30;21.40;99.90
3466;DHT22;1747;48.884;9.160;2023-06-22T04:27:57;21.50;99.90
3466;DHT22;1747;48.884;9.160;2023-06-22T04:30:24;21.50;99.90
3466;DHT22;1747;48.884;9.160;2023-06-22T04:32:50;21.60;99.90
3466;DHT22;1747;48.884;9.160;2023-06-22T04:35:23;21.60;99.90
3466;DHT22;1747;48.884;9.160;2023-06-22T04:37:49;21.60;99.90
3466;DHT22;1747;48.884;9.160;2023-06-22T04:40:21;21.70;99.90
3466;DHT22;1747;48.884;9.160;2023-06-22T04:42:48;21.80;99.90
3466;DHT22;1747;48.884;9.160;2023-06-22T04:45:19;21.90;99.90
3466;DHT22;1747;48.884;9.160;2023-06-22T04:47:46;21.90;99.90
3466;DHT22;1747;48.884;9.160;2023-06-22T04:50:13;21.90;99.90
3466;DHT22;1747;48.884;9.160;2023-06-22T04:52:40;21.90;99.90
3466;DHT22;1747;48.884;9.160;2023-06-22T04:55:07;22.00;99.90
3466;DHT22;1747;48.884;9.160;2023-06-22T04:57:35;22.10;99.90
3466;DHT22;1747;48.884;9.160;2023-06-22T05:00:06;22.10;99.90
3466;DHT22;1747;48.884;9.160;2023-06-22T05:02:43;22.20;99.90
3466;DHT22;1747;48.884;9.160;2023-06-22T05:05:10;22.20;99.90
3466;DHT22;1747;48.884;9.160;2023-06-22T05:07:39;22.30;99.90
3466;DHT22;1747;48.884;9.160;2023-06-22T05:10:08;22.30;99.90
3466;DHT22;1747;48.884;9.160;2023-06-22T05:12:37;22.30;99.90
3466;DHT22;1747;48.884;9.160;2023-06-22T05:15:05;22.40;99.90
3466;DHT22;1747;48.884;9.160;2023-06-22T05:17:32;22.40;99.90
3466;DHT22;1747;48.884;9.160;2023-06-22T05:19:59;22.40;99.90
3466;DHT22;1747;48.884;9.160;2023-06-22T05:22:26;22.50;99.90
3466;DHT22;1747;48.884;9.160;2023-06-22T05:24:53;22.60;99.90
3466;DHT22;1747;48.884;9.160;2023-06-22T05:27:19;22.60;99.90
3466;DHT22;1747;48.884;9.160;2023-06-22T05:29:48;22.70;99.90
3466;DHT22;1747;48.884;9.160;2023-06-22T05:32:14;22.80;99.90
3466;DHT22;1747;48.884;9.160;2023-06-22T05:34:41;22.90;99.90
3466;DHT22;1747;48.884;9.160;2023-06-22T05:37:08;22.90;99.90
3466;DHT22;1747;48.884;9.160;2023-06-22T05:39:36;22.90;99.90
3466;DHT22;1747;48.884;9.160;2023-06-22T05:42:04;23.00;99.90
3466;DHT22;1747;48.884;9.160;2023-06-22T05:44:31;23.00;99.90
3466;DHT22;1747;48.884;9.160;2023-06-22T05:47:00;23.10;99.90
3466;DHT22;1747;48.884;9.160;2023-06-22T05:49:27;23.10;99.90
3466;DHT22;1747;48.884;9.160;2023-06-22T05:51:58;23.10;99.90
3466;DHT22;1747;48.884;9.160;2023-06-22T05:54:25;23.20;99.90
3466;DHT22;1747;48.884;9.160;2023-06-22T05:56:51;23.20;99.90
3466;DHT22;1747;48.884;9.160;2023-06-22T05:59:19;23.30;99.90
3466;DHT22;1747;48.884;9.160;2023-06-22T06:01:46;23.20;99.90
3466;DHT22;1747;48.884;9.160;2023-06-22T06:04:16;23.10;99.90
3466;DHT22;1747;48.884;9.160;2023-06-22T06:06:43;23.20;99.90
3466;DHT22;1747;48.884;9.160;2023-06-22T06:09:12;23.20;99.90
3466;DHT22;1747;48.884;9.160;2023-06-22T06:11:39;23.30;99.90
3466;DHT22;1747;48.884;9.160;2023-06-22T06:14:06;23.40;99.90
3466;DHT22;1747;48.884;9.160;2023-06-22T06:16:33;23.40;99.90
3466;DHT22;1747;48.884;9.160;2023-06-22T06:18:59;23.50;99.90
3466;DHT22;1747;48.884;9.160;2023-06-22T06:21:28;23.60;99.90
3466;DHT22;1747;48.884;9.160;2023-06-22T06:23:54;23.60;99.90
3466;DHT22;1747;48.884;9.160;2023-06-22T06:26:21;23.60;99.90
3466;DHT22;1747;48.884;9.160;2023-06-22T06:28:53;23.70;99.90
3466;DHT22;1747;48.884;9.160;2023-06-22T06:31:20;23.90;99.90
3466;DHT22;1747;48.884;9.160;2023-06-22T06:33:47;23.90;99.90
3466;DHT22;1747;48.884;9.160;2023-06-22T06:36:14;23.90;99.90
3466;DHT22;1747;48.884;9.160;2023-06-22T06:38:42;23.90;99.90
3466;DHT22;1747;48.884;9.160;2023-06-22T06:41:09;24.00;99.90
3466;DHT22;1747;48.884;9.160;2023-06-22T06:43:36;24.10;99.90
3466;DHT22;1747;48.884;9.160;2023-06-22T06:46:02;24.10;99.90
3466;DHT22;1747;48.884;9.160;2023-06-22T06:48:29;24.20;99.90
3466;DHT22;1747;48.884;9.160;2023-06-22T06:50:56;24.30;99.90
3466;DHT22;1747;48.884;9.160;2023-06-22T06:53:23;24.30;99.90
3466;DHT22;1747;48.884;9.160;2023-06-22T06:55:51;24.40;99.90
3466;DHT22;1747;48.884;9.160;2023-06-22T06:58:18;24.60;99.90
3466;DHT22;1747;48.884;9.160;2023-06-22T07:00:45;24.70;99.90
3466;DHT22;1747;48.884;9.160;2023-06-22T07:03:11;24.70;99.90
3466;DHT22;1747;48.884;9.160;2023-06-22T07:05:38;24.80;99.90
3466;DHT22;1747;48.884;9.160;2023-06-22T07:08:05;24.90;99.90
3466;DHT22;1747;48.884;9.160;2023-06-22T07:10:32;25.00;99.90
3466;DHT22;1747;48.884;9.160;2023-06-22T07:13:00;25.00;99.90
3466;DHT22;1747;48.884;9.160;2023-06-22T07:15:27;25.00;99.90
3466;DHT22;1747;48.884;9.160;2023-06-22T07:17:54;25.20;99.90
3466;DHT22;1747;48.884;9.160;2023-06-22T07:20:20;25.30;99.90
3466;DHT22;1747;48.884;9.160;2023-06-22T07:22:47;25.40;99.90
3466;DHT22;1747;48.884;9.160;2023-06-22T07:25:14;25.50;99.90
3466;DHT22;1747;48.884;9.160;2023-06-22T07:27:46;25.50;99.90
3466;DHT22;1747;48.884;9.160;2023-06-22T07:30:15;25.60;99.90
3466;DHT22;1747;48.884;9.160;2023-06-22T07:32:42;25.70;99.90
3466;DHT22;1747;48.884;9.160;2023-06-22T07:35:09;25.70;99.90
3466;DHT22;1747;48.884;9.160;2023-06-22T07:37:36;25.90;99.90
3466;DHT22;1747;48.884;9.160;2023-06-22T07:40:03;25.80;99.90
3466;DHT22;1747;48.884;9.160;2023-06-22T07:42:32;25.90;99.90
3466;DHT22;1747;48.884;9.160;2023-06-22T07:44:59;25.80;99.90
3466;DHT22;1747;48.884;9.160;2023-06-22T07:47:27;25.70;99.90
3466;DHT22;1747;48.884;9.160;2023-06-22T07:49:54;25.90;99.90
3466;DHT22;1747;48.884;9.160;2023-06-22T07:52:23;26.10;99.90
3466;DHT22;1747;48.884;9.160;2023-06-22T07:54:50;26.20;99.90
3466;DHT22;1747;48.884;9.160;2023-06-22T07:57:17;26.30;99.90
3466;DHT22;1747;48.884;9.160;2023-06-22T07:59:44;26.30;99.90
3466;DHT22;1747;48.884;9.160;2023-06-22T08:02:11;26.40;99.90
3466;DHT22;1747;48.884;9.160;2023-06-22T08:04:39;26.50;99.90
3466;DHT22;1747;48.884;9.160;2023-06-22T08:07:06;26.70;99.90
3466;DHT22;1747;48.884;9.160;2023-06-22T08:09:33;26.60;99.90
3466;DHT22;1747;48.884;9.160;2023-06-22T08:12:00;26.80;99.90
3466;DHT22;1747;48.884;9.160;2023-06-22T08:14:29;27.00;99.90
3466;DHT22;1747;48.884;9.160;2023-06-22T08:16:56;27.00;99.90
3466;DHT22;1747;48.884;9.160;2023-06-22T08:19:22;27.20;99.90
3466;DHT22;1747;48.884;9.160;2023-06-22T08:21:51;27.20;99.90
3466;DHT22;1747;48.884;9.160;2023-06-22T08:24:17;27.30;99.90
3466;DHT22;1747;48.884;9.160;2023-06-22T08:26:44;27.50;99.90
3466;DHT22;1747;48.884;9.160;2023-06-22T08:29:11;27.80;99.90
3466;DHT22;1747;48.884;9.160;2023-06-22T08:31:38;28.10;99.90
3466;DHT22;1747;48.884;9.160;2023-06-22T08:34:05;28.00;99.90
3466;DHT22;1747;48.884;9.160;2023-06-22T08:36:32;28.10;99.90
3466;DHT22;1747;48.884;9.160;2023-06-22T08:39:08;28.20;99.90
3466;DHT22;1747;48.884;9.160;2023-06-22T08:41:35;28.20;99.90
3466;DHT22;1747;48.884;9.160;2023-06-22T08:44:01;28.30;99.90
3466;DHT22;1747;48.884;9.160;2023-06-22T08:46:29;28.40;99.90
3466;DHT22;1747;48.884;9.160;2023-06-22T08:48:59;28.30;99.90
3466;DHT22;1747;48.884;9.160;2023-06-22T08:51:26;28.20;99.90
3466;DHT22;1747;48.884;9.160;2023-06-22T08:53:54;28.30;99.90
3466;DHT22;1747;48.884;9.160;2023-06-22T08:56:22;28.30;99.90
3466;DHT22;1747;48.884;9.160;2023-06-22T08:58:54;28.50;99.90
3466;DHT22;1747;48.884;9.160;2023-06-22T09:01:21;28.60;99.90
3466;DHT22;1747;48.884;9.160;2023-06-22T09:03:48;28.50;99.90
3466;DHT22;1747;48.884;9.160;2023-06-22T09:06:19;28.50;99.90
3466;DHT22;1747;48.884;9.160;2023-06-22T09:08:46;28.60;99.90
3466;DHT22;1747;48.884;9.160;2023-06-22T09:11:43;28.80;99.90
3466;DHT22;1747;48.884;9.160;2023-06-22T09:14:10;29.10;99.90
3466;DHT22;1747;48.884;9.160;2023-06-22T09:16:37;29.50;99.90
3466;DHT22;1747;48.884;9.160;2023-06-22T09:19:04;29.80;99.90
3466;DHT22;1747;48.884;9.160;2023-06-22T09:21:31;29.90;99.90
3466;DHT22;1747;48.884;9.160;2023-06-22T09:23:58;30.00;99.90
3466;DHT22;1747;48.884;9.160;2023-06-22T09:26:25;29.80;99.90
3466;DHT22;1747;48.884;9.160;2023-06-22T09:28:53;29.80;99.90
3466;DHT22;1747;48.884;9.160;2023-06-22T09:31:20;30.00;99.90
3466;DHT22;1747;48.884;9.160;2023-06-22T09:33:51;30.10;99.90
3466;DHT22;1747;48.884;9.160;2023-06-22T09:36:18;30.10;99.90
3466;DHT22;1747;48.884;9.160;2023-06-22T09:38:45;30.30;99.90
3466;DHT22;1747;48.884;9.160;2023-06-22T09:41:12;30.50;99.90
3466;DHT22;1747;48.884;9.160;2023-06-22T09:43:39;30.40;99.90
3466;DHT22;1747;48.884;9.160;2023-06-22T09:46:07;30.20;99.90
3466;DHT22;1747;48.884;9.160;2023-06-22T09:48:35;30.30;99.90
3466;DHT22;1747;48.884;9.160;2023-06-22T09:51:01;30.20;99.90
3466;DHT22;1747;48.884;9.160;2023-06-22T09:53:28;30.30;99.90
3466;DHT22;1747;48.884;9.160;2023-06-22T09:55:56;30.30;99.90
3466;DHT22;1747;48.884;9.160;2023-06-22T09:58:23;30.40;99.90
3466;DHT22;1747;48.884;9.160;2023-06-22T10:00:50;30.50;99.90
3466;DHT22;1747;48.884;9.160;2023-06-22T10:03:18;30.80;99.90
3466;DHT22;1747;48.884;9.160;2023-06-22T10:05:45;30.80;99.90
3466;DHT22;1747;48.884;9.160;2023-06-22T10:08:11;30.90;99.90
3466;DHT22;1747;48.884;9.160;2023-06-22T10:10:38;31.10;99.90
3466;DHT22;1747;48.884;9.160;2023-06-22T10:13:08;31.30;99.90
3466;DHT22;1747;48.884;9.160;2023-06-22T10:15:36;31.40;99.60
3466;DHT22;1747;48.884;9.160;2023-06-22T10:18:03;31.50;99.30
3466;DHT22;1747;48.884;9.160;2023-06-22T10:20:31;31.50;99.90
3466;DHT22;1747;48.884;9.160;2023-06-22T10:22:58;31.50;99.90
3466;DHT22;1747;48.884;9.160;2023-06-22T10:25:26;31.60;99.40
3466;DHT22;1747;48.884;9.160;2023-06-22T10:27:53;31.70;99.00
3466;DHT22;1747;48.884;9.160;2023-06-22T10:30:19;31.80;98.80
3466;DHT22;1747;48.884;9.160;2023-06-22T10:32:46;31.90;99.50
3466;DHT22;1747;48.884;9.160;2023-06-22T10:35:13;32.00;99.40
3466;DHT22;1747;48.884;9.160;2023-06-22T10:37:43;32.20;98.90
3466;DHT22;1747;48.884;9.160;2023-06-22T10:40:12;32.30;98.10
3466;DHT22;1747;48.884;9.160;2023-06-22T10:42:39;32.30;98.60
3466;DHT22;1747;48.884;9.160;2023-06-22T10:45:07;32.30;99.00
3466;DHT22;1747;48.884;9.160;2023-06-22T10:47:34;32.50;97.40
3466;DHT22;1747;48.884;9.160;2023-06-22T10:50:01;32.50;96.80
3466;DHT22;1747;48.884;9.160;2023-06-22T10:52:28;32.70;97.20
3466;DHT22;1747;48.884;9.160;2023-06-22T10:54:57;32.50;97.80
3466;DHT22;1747;48.884;9.160;2023-06-22T10:57:24;32.60;97.80
3466;DHT22;1747;48.884;9.160;2023-06-22T10:59:50;32.80;97.60
3466;DHT22;1747;48.884;9.160;2023-06-22T11:02:17;32.80;97.30
3466;DHT22;1747;48.884;9.160;2023-06-22T11:04:44;32.90;97.40
3466;DHT22;1747;48.884;9.160;2023-06-22T11:07:11;33.00;97.10
3466;DHT22;1747;48.884;9.160;2023-06-22T11:09:38;33.20;96.90
3466;DHT22;1747;48.884;9.160;2023-06-22T11:12:07;33.20;97.50
3466;DHT22;1747;48.884;9.160;2023-06-22T11:14:35;33.20;96.90
3466;DHT22;1747;48.884;9.160;2023-06-22T11:17:01;33.10;96.10
3466;DHT22;1747;48.884;9.160;2023-06-22T11:19:28;33.30;96.60
3466;DHT22;1747;48.884;9.160;2023-06-22T11:21:55;33.40;95.40
3466;DHT22;1747;48.884;9.160;2023-06-22T11:24:22;33.60;95.00
3466;DHT22;1747;48.884;9.160;2023-06-22T11:26:50;33.60;94.30
3466;DHT22;1747;48.884;9.160;2023-06-22T11:29:18;33.50;94.10
3466;DHT22;1747;48.884;9.160;2023-06-22T11:31:45;33.50;93.50
3466;DHT22;1747;48.884;9.160;2023-06-22T11:34:12;33.30;95.80
3466;DHT22;1747;48.884;9.160;2023-06-22T11:36:40;33.20;95.60
3466;DHT22;1747;48.884;9.160;2023-06-22T11:39:08;33.10;95.10
3466;DHT22;1747;48.884;9.160;2023-06-22T11:41:36;32.90;94.90
3466;DHT22;1747;48.884;9.160;2023-06-22T11:44:03;32.80;95.90
3466;DHT22;1747;48.884;9.160;2023-06-22T11:46:32;32.70;96.00
3466;DHT22;1747;48.884;9.160;2023-06-22T11:49:00;32.60;97.60
3466;DHT22;1747;48.884;9.160;2023-06-22T11:51:27;32.60;97.50
3466;DHT22;1747;48.884;9.160;2023-06-22T11:53:54;32.50;96.90
3466;DHT22;1747;48.884;9.160;2023-06-22T11:56:21;32.60;96.70
3466;DHT22;1747;48.884;9.160;2023-06-22T11:58:47;32.60;96.60
3466;DHT22;1747;48.884;9.160;2023-06-22T12:01:14;32.70;96.30
3466;DHT22;1747;48.884;9.160;2023-06-22T12:03:42;32.60;96.00
3466;DHT22;1747;48.884;9.160;2023-06-22T12:06:09;32.40;97.20
3466;DHT22;1747;48.884;9.160;2023-06-22T12:08:37;32.30;97.00
3466;DHT22;1747;48.884;9.160;2023-06-22T12:11:03;32.20;96.90
3466;DHT22;1747;48.884;9.160;2023-06-22T12:13:30;32.30;96.60
3466;DHT22;1747;48.884;9.160;2023-06-22T12:15:57;31.90;96.50
3466;DHT22;1747;48.884;9.160;2023-06-22T12:18:24;31.90;96.40
3466;DHT22;1747;48.884;9.160;2023-06-22T12:20:52;31.90;98.40
3466;DHT22;1747;48.884;9.160;2023-06-22T12:23:19;31.80;97.00
3466;DHT22;1747;48.884;9.160;2023-06-22T12:25:46;31.80;98.40
3466;DHT22;1747;48.884;9.160;2023-06-22T12:28:13;31.90;97.90
3466;DHT22;1747;48.884;9.160;2023-06-22T12:30:40;32.00;97.00
3466;DHT22;1747;48.884;9.160;2023-06-22T12:33:06;32.10;97.10
3466;DHT22;1747;48.884;9.160;2023-06-22T12:35:33;32.20;97.20
3466;DHT22;1747;48.884;9.160;2023-06-22T12:38:02;32.20;96.60
3466;DHT22;1747;48.884;9.160;2023-06-22T12:40:31;32.30;96.60
3466;DHT22;1747;48.884;9.160;2023-06-22T12:42:58;32.40;96.20
3466;DHT22;1747;48.884;9.160;2023-06-22T12:45:25;32.50;95.90
3466;DHT22;1747;48.884;9.160;2023-06-22T12:47:54;32.60;95.60
3466;DHT22;1747;48.884;9.160;2023-06-22T12:50:21;32.60;96.60
3466;DHT22;1747;48.884;9.160;2023-06-22T12:52:47;32.50;96.70
3466;DHT22;1747;48.884;9.160;2023-06-22T12:55:16;32.70;96.80
3466;DHT22;1747;48.884;9.160;2023-06-22T12:57:42;32.80;96.00
3466;DHT22;1747;48.884;9.160;2023-06-22T13:00:10;32.90;95.80
3466;DHT22;1747;48.884;9.160;2023-06-22T13:02:37;32.90;95.60
3466;DHT22;1747;48.884;9.160;2023-06-22T13:05:05;32.80;95.30
3466;DHT22;1747;48.884;9.160;2023-06-22T13:07:32;32.60;96.40
3466;DHT22;1747;48.884;9.160;2023-06-22T13:09:58;32.40;96.70
3466;DHT22;1747;48.884;9.160;2023-06-22T13:12:26;32.30;96.70
3466;DHT22;1747;48.884;9.160;2023-06-22T13:14:53;32.20;97.50
3466;DHT22;1747;48.884;9.160;2023-06-22T13:17:20;32.10;97.70
3466;DHT22;1747;48.884;9.160;2023-06-22T13:19:47;32.20;96.40
3466;DHT22;1747;48.884;9.160;2023-06-22T13:22:28;32.10;97.20
3466;DHT22;1747;48.884;9.160;2023-06-22T13:24:55;32.20;97.40
3466;DHT22;1747;48.884;9.160;2023-06-22T13:27:22;32.10;96.40
3466;DHT22;1747;48.884;9.160;2023-06-22T13:29:50;32.20;96.60
3466;DHT22;1747;48.884;9.160;2023-06-22T13:32:17;32.20;96.40
3466;DHT22;1747;48.884;9.160;2023-06-22T13:34:44;32.30;96.50
3466;DHT22;1747;48.884;9.160;2023-06-22T13:37:11;32.50;96.50
3466;DHT22;1747;48.884;9.160;2023-06-22T13:39:38;32.70;96.20
3466;DHT22;1747;48.884;9.160;2023-06-22T13:42:05;32.90;96.20
3466;DHT22;1747;48.884;9.160;2023-06-22T13:44:34;33.00;96.80
3466;DHT22;1747;48.884;9.160;2023-06-22T13:47:03;33.10;95.00
3466;DHT22;1747;48.884;9.160;2023-06-22T13:49:31;33.30;95.20
3466;DHT22;1747;48.884;9.160;2023-06-22T13:51:58;33.40;94.90
3466;DHT22;1747;48.884;9.160;2023-06-22T13:54:25;33.70;94.80
3466;DHT22;1747;48.884;9.160;2023-06-22T13:56:52;34.00;95.60
3466;DHT22;1747;48.884;9.160;2023-06-22T13:59:19;34.00;94.70
3466;DHT22;1747;48.884;9.160;2023-06-22T14:01:46;34.00;94.80
3466;DHT22;1747;48.884;9.160;2023-06-22T14:04:15;33.80;94.80
3466;DHT22;1747;48.884;9.160;2023-06-22T14:06:41;33.80;96.20
3466;DHT22;1747;48.884;9.160;2023-06-22T14:09:08;33.60;94.50
3466;DHT22;1747;48.884;9.160;2023-06-22T14:11:35;33.50;96.70
3466;DHT22;1747;48.884;9.160;2023-06-22T14:14:03;33.40;96.80
3466;DHT22;1747;48.884;9.160;2023-06-22T14:16:30;33.20;96.90
3466;DHT22;1747;48.884;9.160;2023-06-22T14:18:56;33.30;95.30
3466;DHT22;1747;48.884;9.160;2023-06-22T14:21:25;33.40;95.10
3466;DHT22;1747;48.884;9.160;2023-06-22T14:23:52;33.30;94.60
3466;DHT22;1747;48.884;9.160;2023-06-22T14:26:19;33.40;94.70
3466;DHT22;1747;48.884;9.160;2023-06-22T14:28:47;33.60;94.50
3466;DHT22;1747;48.884;9.160;2023-06-22T14:31:16;33.90;94.10
3466;DHT22;1747;48.884;9.160;2023-06-22T14:33:45;34.40;93.70
3466;DHT22;1747;48.884;9.160;2023-06-22T14:36:13;34.90;93.20
3466;DHT22;1747;48.884;9.160;2023-06-22T14:38:41;35.10;92.40
3466;DHT22;1747;48.884;9.160;2023-06-22T14:41:08;35.20;92.30
3466;DHT22;1747;48.884;9.160;2023-06-22T14:43:34;35.40;91.90
3466;DHT22;1747;48.884;9.160;2023-06-22T14:46:01;35.50;91.90
3466;DHT22;1747;48.884;9.160;2023-06-22T14:48:29;35.80;91.00
3466;DHT22;1747;48.884;9.160;2023-06-22T14:50:57;36.00;90.40
3466;DHT22;1747;48.884;9.160;2023-06-22T14:53:25;36.20;87.90
3466;DHT22;1747;48.884;9.160;2023-06-22T14:55:54;36.40;87.40
3466;DHT22;1747;48.884;9.160;2023-06-22T14:58:21;37.00;79.30
3466;DHT22;1747;48.884;9.160;2023-06-22T15:00:48;37.20;75.50
3466;DHT22;1747;48.884;9.160;2023-06-22T15:03:15;37.60;74.50
3466;DHT22;1747;48.884;9.160;2023-06-22T15:05:47;38.00;70.00
3466;DHT22;1747;48.884;9.160;2023-06-22T15:08:14;38.50;67.80
3466;DHT22;1747;48.884;9.160;2023-06-22T15:10:41;38.80;65.30
3466;DHT22;1747;48.884;9.160;2023-06-22T15:13:10;39.10;64.10
3466;DHT22;1747;48.884;9.160;2023-06-22T15:15:37;39.30;61.60
3466;DHT22;1747;48.884;9.160;2023-06-22T15:18:05;39.40;60.90
3466;DHT22;1747;48.884;9.160;2023-06-22T15:20:32;39.10;60.70
3466;DHT22;1747;48.884;9.160;2023-06-22T15:22:59;38.80;59.30
3466;DHT22;1747;48.884;9.160;2023-06-22T15:25:26;38.60;59.10
3466;DHT22;1747;48.884;9.160;2023-06-22T15:27:53;38.20;60.60
3466;DHT22;1747;48.884;9.160;2023-06-22T15:30:22;37.90;60.60
3466;DHT22;1747;48.884;9.160;2023-06-22T15:32:49;37.60;61.60
3466;DHT22;1747;48.884;9.160;2023-06-22T15:35:15;37.60;61.70
3466;DHT22;1747;48.884;9.160;2023-06-22T15:37:44;37.80;62.10
3466;DHT22;1747;48.884;9.160;2023-06-22T15:40:12;37.80;61.20
3466;DHT22;1747;48.884;9.160;2023-06-22T15:42:44;38.10;60.20
3466;DHT22;1747;48.884;9.160;2023-06-22T15:45:13;38.30;59.60
3466;DHT22;1747;48.884;9.160;2023-06-22T15:47:41;38.20;58.50
3466;DHT22;1747;48.884;9.160;2023-06-22T15:50:09;37.80;58.80
3466;DHT22;1747;48.884;9.160;2023-06-22T15:52:36;37.30;60.10
3466;DHT22;1747;48.884;9.160;2023-06-22T15:55:03;36.70;59.50
3466;DHT22;1747;48.884;9.160;2023-06-22T15:57:30;36.20;60.70
3466;DHT22;1747;48.884;9.160;2023-06-22T15:59:57;35.80;60.80
3466;DHT22;1747;48.884;9.160;2023-06-22T16:02:24;35.40;62.00
3466;DHT22;1747;48.884;9.160;2023-06-22T16:04:53;35.30;62.40